aviador You're here:

KHEY Decoded Metar

in _UNIDENTIFIED
Report Time2017-09-24 22:58:00
UTC Time2017-09-24 23:07:01
Flight Rules vfr VFR
Wind030° at 04 kt
W.Decomp.*RWY 35: 2.9 kt HW 2.7 kt RCW
W.Rank030° ranks 18
Current wind is below 030° avg. (6.2)
Visibility9999 m
Phenomena:N/A
Clouds:N/A
Expected CloudBase > 1,600 ft AGL from Temp-Dew spread
CeilingNone
Temp26°C (ISA +12)
Dew Point22°C (79% RH)
QNH1013 hPa
Density Alt2,011 ft
Elevation318 ft
Report Wrong Elevation
Raw Report
KHEY 242258Z AUTO 03004KT 10SM CLR 26/22 A2992 RMK AO2 LTG DSNT S
SLP131 T02640215 $=

Extra information for KHEY:More info

Metar Taf Metar & Taf Last 4 Metars F.Rules Stats Wind Profile Meteogram Temp Stats Metar ALERT Operation Metar Decoded Social comments